Time;durP1;ratioP1;P1;durP2;ratioP2;P2;SDS_P1;SDS_P2;PMS_P1;PMS_P2;Temp;Humidity;BMP_temperature;BMP_pressure;BME280_temperature;BME280_humidity;BME280_pressure;Samples;Min_cycle;Max_cycle;Signal;HPM_P1;HPM_P2
2024/03/22 00:00:42;;;;;;;46.27;41.47;;;;;;;;;;5049523;28;20490;-79
2024/03/22 00:03:09;;;;;;;49.00;43.60;;;;;;;;;;5050000;28;20432;-79
2024/03/22 00:05:37;;;;;;;54.13;44.13;;;;;;;;;;5049920;28;20533;-79
2024/03/22 00:08:04;;;;;;;54.87;47.33;;;;;;;;;;5049289;28;20535;-79
2024/03/22 00:10:30;;;;;;;43.57;38.97;;;;;;;;;;5048983;28;20620;-78
2024/03/22 00:12:57;;;;;;;51.53;46.23;;;;;;;;;;5049847;28;20452;-79
2024/03/22 00:15:23;;;;;;;51.70;44.20;;;;;;;;;;5049792;28;20452;-77
2024/03/22 00:17:50;;;;;;;55.83;48.20;;;;;;;;;;5048952;28;21067;-79
2024/03/22 00:20:16;;;;;;;52.23;45.00;;;;;;;;;;5046122;28;20997;-78
2024/03/22 00:22:44;;;;;;;52.63;46.30;;;;;;;;;;5038886;28;20452;-80
2024/03/22 00:25:10;;;;;;;49.67;44.20;;;;;;;;;;5049417;28;20537;-78
2024/03/22 00:27:37;;;;;;;52.63;46.97;;;;;;;;;;5045695;28;20946;-79
2024/03/22 00:30:04;;;;;;;51.27;44.97;;;;;;;;;;5029651;28;20448;-78
2024/03/22 00:32:31;;;;;;;54.43;48.33;;;;;;;;;;5029351;28;20419;-79
2024/03/22 00:34:57;;;;;;;58.37;46.20;;;;;;;;;;5043587;28;20850;-79
2024/03/22 00:37:24;;;;;;;51.57;46.07;;;;;;;;;;5049412;28;20441;-78
2024/03/22 00:39:51;;;;;;;51.07;45.77;;;;;;;;;;5052932;28;20460;-79
2024/03/22 00:42:18;;;;;;;51.70;46.30;;;;;;;;;;5053610;28;20467;-79
2024/03/22 00:44:44;;;;;;;53.43;46.27;;;;;;;;;;5053000;28;20539;-79
2024/03/22 00:47:11;;;;;;;51.57;45.90;;;;;;;;;;5052511;28;20512;-79
2024/03/22 00:49:37;;;;;;;51.97;46.33;;;;;;;;;;5053048;28;20452;-79
2024/03/22 00:52:04;;;;;;;54.47;47.73;;;;;;;;;;5053335;28;20481;-79
2024/03/22 00:54:30;;;;;;;51.27;44.50;;;;;;;;;;5053290;28;20423;-78
2024/03/22 00:56:59;;;;;;;52.93;45.60;;;;;;;;;;5052970;28;20458;-78
2024/03/22 00:59:25;;;;;;;57.80;48.13;;;;;;;;;;5052637;28;20446;-79
2024/03/22 01:01:52;;;;;;;54.10;47.33;;;;;;;;;;5053288;28;20456;-78
2024/03/22 01:04:18;;;;;;;52.67;46.87;;;;;;;;;;5052778;28;20780;-79
2024/03/22 01:06:45;;;;;;;52.20;46.23;;;;;;;;;;5052098;28;20900;-79
2024/03/22 01:09:11;;;;;;;52.57;46.87;;;;;;;;;;5052533;28;20442;-78
2024/03/22 01:11:38;;;;;;;52.17;44.60;;;;;;;;;;5052625;28;20950;-79
2024/03/22 01:14:05;;;;;;;51.07;45.30;;;;;;;;;;5053096;28;20474;-79
2024/03/22 01:16:32;;;;;;;47.90;42.70;;;;;;;;;;5051774;28;20932;-79
2024/03/22 01:18:58;;;;;;;53.53;47.67;;;;;;;;;;5052471;28;20426;-78
2024/03/22 01:21:25;;;;;;;55.90;48.17;;;;;;;;;;5045723;28;20985;-78
2024/03/22 01:23:52;;;;;;;50.60;45.20;;;;;;;;;;5032478;28;20464;-78
2024/03/22 01:26:19;;;;;;;55.97;48.20;;;;;;;;;;5032172;28;20485;-78
2024/03/22 01:28:45;;;;;;;55.77;47.53;;;;;;;;;;5032568;28;20453;-79
2024/03/22 01:31:13;;;;;;;52.10;44.30;;;;;;;;;;5032332;28;20956;-79
2024/03/22 01:33:39;;;;;;;53.43;47.47;;;;;;;;;;5032441;28;21019;-79
2024/03/22 01:36:06;;;;;;;49.23;44.00;;;;;;;;;;5032254;28;20437;-79
2024/03/22 01:38:32;;;;;;;53.90;44.90;;;;;;;;;;5032678;28;20458;-79
2024/03/22 01:40:59;;;;;;;49.53;44.13;;;;;;;;;;5032859;28;20454;-78
2024/03/22 01:43:25;;;;;;;54.80;47.20;;;;;;;;;;5032423;28;20428;-80
2024/03/22 01:45:52;;;;;;;50.07;44.50;;;;;;;;;;5031999;28;20509;-79
2024/03/22 01:48:20;;;;;;;62.20;45.93;;;;;;;;;;5032334;28;20794;-79
2024/03/22 01:50:47;;;;;;;51.50;43.17;;;;;;;;;;5031381;28;20448;-79
2024/03/22 01:53:13;;;;;;;52.50;46.30;;;;;;;;;;5041202;28;20491;-78
2024/03/22 01:55:41;;;;;;;51.73;44.90;;;;;;;;;;5051850;28;20422;-78
2024/03/22 01:58:07;;;;;;;54.53;46.37;;;;;;;;;;5051717;28;20420;-79
2024/03/22 02:00:34;;;;;;;48.77;42.77;;;;;;;;;;5051808;28;20493;-79
2024/03/22 02:03:00;;;;;;;51.20;43.80;;;;;;;;;;5052000;28;20431;-79
2024/03/22 02:05:28;;;;;;;52.00;43.60;;;;;;;;;;5051608;28;20891;-78
2024/03/22 02:07:55;;;;;;;52.43;44.80;;;;;;;;;;5050351;28;20480;-79
2024/03/22 02:10:22;;;;;;;49.43;44.00;;;;;;;;;;5051906;28;20480;-79
2024/03/22 02:12:48;;;;;;;50.67;45.17;;;;;;;;;;5051944;28;20477;-78
2024/03/22 02:15:15;;;;;;;54.33;44.57;;;;;;;;;;5052067;28;20473;-79
2024/03/22 02:17:41;;;;;;;52.73;45.93;;;;;;;;;;5051561;28;20533;-78
2024/03/22 02:20:10;;;;;;;52.63;44.50;;;;;;;;;;5037526;28;20509;-78
2024/03/22 02:22:37;;;;;;;57.13;45.90;;;;;;;;;;5032172;28;20453;-79
2024/03/22 02:25:07;;;;;;;49.63;43.93;;;;;;;;;;5047206;28;20488;-80
2024/03/22 02:27:33;;;;;;;52.33;44.83;;;;;;;;;;5049562;28;20559;-78
2024/03/22 02:30:00;;;;;;;53.33;43.77;;;;;;;;;;5031744;28;20465;-79
2024/03/22 02:32:26;;;;;;;52.67;44.20;;;;;;;;;;5046959;28;20487;-78
2024/03/22 02:34:53;;;;;;;47.37;42.17;;;;;;;;;;5050948;28;20788;-78
2024/03/22 02:37:19;;;;;;;48.27;42.97;;;;;;;;;;5036430;28;20872;-78
2024/03/22 02:39:46;;;;;;;48.53;42.90;;;;;;;;;;5031318;28;20459;-79
2024/03/22 02:42:13;;;;;;;50.20;44.53;;;;;;;;;;5031243;28;20416;-79
2024/03/22 02:44:42;;;;;;;54.10;45.50;;;;;;;;;;5031463;28;20949;-78
2024/03/22 02:47:08;;;;;;;53.70;46.10;;;;;;;;;;5037820;28;20499;-77
2024/03/22 02:49:35;;;;;;;55.07;46.40;;;;;;;;;;5051235;28;20472;-79
2024/03/22 02:52:01;;;;;;;55.53;46.60;;;;;;;;;;5050912;28;20430;-78
2024/03/22 02:54:28;;;;;;;54.67;45.60;;;;;;;;;;5040388;28;20498;-78
2024/03/22 02:56:54;;;;;;;53.43;46.97;;;;;;;;;;5031017;28;20451;-78
2024/03/22 02:59:23;;;;;;;49.77;44.47;;;;;;;;;;5031383;28;20452;-78
2024/03/22 03:01:49;;;;;;;50.30;42.07;;;;;;;;;;5030443;28;20497;-78
2024/03/22 03:04:16;;;;;;;51.77;43.67;;;;;;;;;;5031147;28;20433;-79
2024/03/22 03:06:42;;;;;;;49.67;44.17;;;;;;;;;;5030695;28;20455;-79
2024/03/22 03:09:10;;;;;;;48.90;42.60;;;;;;;;;;5030873;28;20478;-78
2024/03/22 03:11:36;;;;;;;48.97;43.60;;;;;;;;;;5030978;28;20466;-79
2024/03/22 03:14:04;;;;;;;49.73;44.43;;;;;;;;;;5031031;28;20453;-80
2024/03/22 03:16:31;;;;;;;50.73;44.83;;;;;;;;;;5030322;28;20441;-78
2024/03/22 03:18:58;;;;;;;47.30;40.67;;;;;;;;;;5030800;28;20549;-78
2024/03/22 03:21:25;;;;;;;54.53;43.40;;;;;;;;;;5030524;28;20816;-79
2024/03/22 03:23:51;;;;;;;49.30;43.17;;;;;;;;;;5030453;28;20454;-79
2024/03/22 03:26:18;;;;;;;52.10;45.47;;;;;;;;;;5033330;28;20469;-79
2024/03/22 03:28:44;;;;;;;53.27;44.60;;;;;;;;;;5050589;28;20431;-79
2024/03/22 03:31:11;;;;;;;52.53;43.93;;;;;;;;;;5050548;28;20522;-78
2024/03/22 03:33:39;;;;;;;50.80;45.50;;;;;;;;;;5050533;28;20452;-78
2024/03/22 03:36:06;;;;;;;50.10;44.70;;;;;;;;;;5049876;28;20489;-79
2024/03/22 03:38:32;;;;;;;54.33;45.07;;;;;;;;;;5050622;28;20431;-79
2024/03/22 03:40:59;;;;;;;49.33;41.80;;;;;;;;;;5050250;28;20454;-78
2024/03/22 03:43:25;;;;;;;51.00;44.10;;;;;;;;;;5050182;28;20924;-79
2024/03/22 03:45:54;;;;;;;53.63;44.70;;;;;;;;;;5049917;28;20488;-78
2024/03/22 03:48:20;;;;;;;47.53;42.43;;;;;;;;;;5050656;28;20438;-80
2024/03/22 03:50:54;;;;;;;47.77;42.30;;;;;;;;;;5050024;28;20549;-78
2024/03/22 03:53:20;;;;;;;51.60;44.23;;;;;;;;;;5050236;28;20422;-79
2024/03/22 03:55:47;;;;;;;52.73;44.00;;;;;;;;;;5049552;28;20951;-80
2024/03/22 03:58:13;;;;;;;56.03;43.77;;;;;;;;;;5050178;28;20970;-79
2024/03/22 04:00:40;;;;;;;51.73;45.70;;;;;;;;;;5050244;28;20442;-78
2024/03/22 04:03:06;;;;;;;54.43;43.40;;;;;;;;;;5049901;28;20413;-78
2024/03/22 04:05:33;;;;;;;55.33;44.60;;;;;;;;;;5049837;28;21007;-80
2024/03/22 04:08:01;;;;;;;53.43;44.47;;;;;;;;;;5049699;28;20878;-79
2024/03/22 04:10:27;;;;;;;50.07;42.10;;;;;;;;;;5050228;28;20523;-79
2024/03/22 04:12:53;;;;;;;52.10;42.83;;;;;;;;;;5050136;28;20918;-80
2024/03/22 04:15:20;;;;;;;54.27;44.93;;;;;;;;;;5053798;28;20974;-78
2024/03/22 04:17:46;;;;;;;48.33;43.10;;;;;;;;;;5053596;28;20785;-78
2024/03/22 04:20:13;;;;;;;54.63;43.30;;;;;;;;;;5053350;28;20538;-78
2024/03/22 04:22:39;;;;;;;51.53;42.97;;;;;;;;;;5054170;28;20926;-78
2024/03/22 04:25:08;;;;;;;53.13;44.23;;;;;;;;;;5053802;28;20448;-78
2024/03/22 04:27:36;;;;;;;50.73;44.40;;;;;;;;;;5052990;28;20771;-78
2024/03/22 04:30:03;;;;;;;50.13;43.60;;;;;;;;;;5053717;28;20795;-78
2024/03/22 04:32:29;;;;;;;50.07;44.30;;;;;;;;;;5052510;28;20467;-78
2024/03/22 04:34:56;;;;;;;51.97;43.97;;;;;;;;;;5053681;28;20450;-80
2024/03/22 04:37:23;;;;;;;51.37;43.83;;;;;;;;;;5053037;28;20477;-78
2024/03/22 04:39:50;;;;;;;51.30;43.63;;;;;;;;;;5053537;28;20459;-78
2024/03/22 04:42:19;;;;;;;52.13;46.20;;;;;;;;;;5053442;28;20867;-79
2024/03/22 04:44:45;;;;;;;50.83;44.10;;;;;;;;;;5053455;28;21001;-79
2024/03/22 04:47:12;;;;;;;48.00;38.53;;;;;;;;;;5053374;28;20460;-79
2024/03/22 04:49:38;;;;;;;50.60;40.70;;;;;;;;;;5047392;28;20533;-79
2024/03/22 04:52:05;;;;;;;56.30;44.60;;;;;;;;;;5033760;28;20457;-78
2024/03/22 04:54:32;;;;;;;49.10;43.07;;;;;;;;;;5033635;28;20452;-80
2024/03/22 04:56:59;;;;;;;53.23;44.27;;;;;;;;;;5033444;28;20831;-80
2024/03/22 04:59:26;;;;;;;51.63;42.83;;;;;;;;;;5033315;28;20448;-79
2024/03/22 05:01:53;;;;;;;50.97;45.27;;;;;;;;;;5033691;28;20551;-78
2024/03/22 05:04:19;;;;;;;48.30;43.23;;;;;;;;;;5033414;28;20441;-78
2024/03/22 05:06:46;;;;;;;55.03;45.17;;;;;;;;;;5032653;28;20562;-78
2024/03/22 05:09:12;;;;;;;52.20;44.10;;;;;;;;;;5032873;28;20505;-79
2024/03/22 05:11:39;;;;;;;56.93;44.30;;;;;;;;;;5033077;28;20519;-80
2024/03/22 05:14:05;;;;;;;50.00;44.20;;;;;;;;;;5033054;28;20461;-78
2024/03/22 05:16:34;;;;;;;48.73;42.00;;;;;;;;;;5032577;28;20452;-80
2024/03/22 05:19:00;;;;;;;48.57;42.77;;;;;;;;;;5032658;28;20946;-79
2024/03/22 05:21:27;;;;;;;47.17;39.57;;;;;;;;;;5032900;28;20461;-78
2024/03/22 05:23:53;;;;;;;49.73;40.73;;;;;;;;;;5033105;28;20460;-79
2024/03/22 05:26:20;;;;;;;50.10;39.93;;;;;;;;;;5031563;28;20547;-78
2024/03/22 05:28:46;;;;;;;50.13;41.87;;;;;;;;;;5033018;28;20453;-79
2024/03/22 05:31:13;;;;;;;48.47;41.97;;;;;;;;;;5033365;28;20459;-80
2024/03/22 05:33:41;;;;;;;51.30;41.63;;;;;;;;;;5052939;28;20460;-79
2024/03/22 05:36:08;;;;;;;48.70;40.73;;;;;;;;;;5052195;28;20545;-80
2024/03/22 05:38:34;;;;;;;50.97;41.97;;;;;;;;;;5054034;28;20454;-84
2024/03/22 05:41:05;;;;;;;49.90;43.20;;;;;;;;;;5055921;28;20479;-81
2024/03/22 05:43:31;;;;;;;49.77;41.17;;;;;;;;;;5056027;28;20419;-82
2024/03/22 05:45:58;;;;;;;49.47;39.50;;;;;;;;;;5055760;28;20457;-81
2024/03/22 05:48:24;;;;;;;43.67;39.00;;;;;;;;;;5055640;28;20441;-81
2024/03/22 05:50:52;;;;;;;49.00;39.47;;;;;;;;;;5055260;28;20974;-81
2024/03/22 05:53:18;;;;;;;48.97;39.43;;;;;;;;;;5055169;28;20459;-82
2024/03/22 05:55:46;;;;;;;41.43;37.10;;;;;;;;;;5055649;28;20489;-91
2024/03/22 05:58:12;;;;;;;45.77;40.53;;;;;;;;;;5053784;28;20436;-82
2024/03/22 06:00:40;;;;;;;43.40;38.90;;;;;;;;;;5044795;28;20485;-80
2024/03/22 06:03:06;;;;;;;44.97;40.07;;;;;;;;;;5055982;28;20422;-83
2024/03/22 06:05:34;;;;;;;44.70;37.60;;;;;;;;;;5049066;28;20447;-83
2024/03/22 06:08:03;;;;;;;50.60;39.00;;;;;;;;;;5036427;28;20529;-81
2024/03/22 06:10:30;;;;;;;42.50;36.40;;;;;;;;;;5054761;28;20474;-82
2024/03/22 06:12:56;;;;;;;41.40;37.00;;;;;;;;;;5050876;28;20487;-82
2024/03/22 06:15:23;;;;;;;45.93;37.97;;;;;;;;;;5038020;28;20435;-83
2024/03/22 06:17:50;;;;;;;40.33;34.73;;;;;;;;;;5035641;28;20409;-83
2024/03/22 06:20:17;;;;;;;38.93;34.93;;;;;;;;;;5035911;28;20465;-81
2024/03/22 06:22:43;;;;;;;44.63;39.37;;;;;;;;;;5037367;28;20748;-83
2024/03/22 06:25:11;;;;;;;45.23;37.87;;;;;;;;;;5035755;28;20806;-82
2024/03/22 06:27:37;;;;;;;40.57;36.40;;;;;;;;;;5038585;28;21045;-82
2024/03/22 06:30:11;;;;;;;42.67;38.37;;;;;;;;;;5041253;28;20810;-84
2024/03/22 06:32:37;;;;;;;41.10;36.03;;;;;;;;;;5036293;28;20890;-82
2024/03/22 06:35:05;;;;;;;39.13;34.93;;;;;;;;;;5035354;28;20937;-82
2024/03/22 06:37:31;;;;;;;40.70;35.60;;;;;;;;;;5034822;28;20487;-82
2024/03/22 06:39:59;;;;;;;39.47;35.10;;;;;;;;;;5034549;28;20571;-84
2024/03/22 06:42:26;;;;;;;39.57;35.47;;;;;;;;;;5037290;28;20509;-82
2024/03/22 06:44:53;;;;;;;37.23;33.43;;;;;;;;;;5053305;28;20466;-82
2024/03/22 06:47:21;;;;;;;38.57;34.70;;;;;;;;;;5054382;28;20821;-82
2024/03/22 06:49:48;;;;;;;39.60;35.37;;;;;;;;;;5055544;28;20503;-82
2024/03/22 06:52:14;;;;;;;43.40;37.03;;;;;;;;;;5054587;28;20501;-82
2024/03/22 06:54:41;;;;;;;37.47;33.57;;;;;;;;;;5054996;28;20427;-83
2024/03/22 06:57:07;;;;;;;38.53;34.43;;;;;;;;;;5055217;28;20480;-82
2024/03/22 06:59:36;;;;;;;38.13;34.17;;;;;;;;;;5054816;28;20483;-84
2024/03/22 07:02:02;;;;;;;38.07;34.20;;;;;;;;;;5055171;28;20498;-83
2024/03/22 07:04:29;;;;;;;37.87;33.93;;;;;;;;;;5054901;28;20879;-83
2024/03/22 07:06:55;;;;;;;37.37;33.33;;;;;;;;;;5039337;28;20492;-82
2024/03/22 07:09:22;;;;;;;39.53;34.20;;;;;;;;;;5034700;28;20440;-82
2024/03/22 07:11:48;;;;;;;38.63;34.80;;;;;;;;;;5039292;28;20603;-82
2024/03/22 07:14:15;;;;;;;36.87;33.17;;;;;;;;;;5041534;28;20475;-82
2024/03/22 07:16:42;;;;;;;34.90;31.70;;;;;;;;;;5057024;28;20440;-82
2024/03/22 07:19:09;;;;;;;37.80;33.93;;;;;;;;;;5057448;28;20898;-82
2024/03/22 07:21:35;;;;;;;30.87;28.00;;;;;;;;;;5053154;28;20528;-82
2024/03/22 07:24:03;;;;;;;37.40;33.93;;;;;;;;;;5034177;28;20456;-81
2024/03/22 07:26:29;;;;;;;38.50;34.63;;;;;;;;;;5034580;28;20484;-83
2024/03/22 07:28:56;;;;;;;39.43;35.33;;;;;;;;;;5034699;28;20546;-83
2024/03/22 07:31:22;;;;;;;38.37;34.27;;;;;;;;;;5035133;28;20451;-83
2024/03/22 07:33:50;;;;;;;29.50;26.87;;;;;;;;;;5035958;28;20455;-80
2024/03/22 07:36:16;;;;;;;35.20;31.80;;;;;;;;;;5034878;28;20519;-82
2024/03/22 07:38:44;;;;;;;32.00;28.90;;;;;;;;;;5034647;28;20456;-83
2024/03/22 07:41:10;;;;;;;32.87;29.73;;;;;;;;;;5036220;28;20468;-83
2024/03/22 07:43:37;;;;;;;35.87;32.47;;;;;;;;;;5037157;28;20448;-82
2024/03/22 07:46:03;;;;;;;34.27;30.97;;;;;;;;;;5042790;28;21015;-82
2024/03/22 07:48:30;;;;;;;35.57;32.37;;;;;;;;;;5056739;28;20798;-82
2024/03/22 07:51:00;;;;;;;35.23;31.80;;;;;;;;;;5058378;28;20459;-82
2024/03/22 07:53:27;;;;;;;32.07;29.33;;;;;;;;;;5062779;28;20447;-83
2024/03/22 07:55:53;;;;;;;36.50;33.17;;;;;;;;;;5063197;28;20493;-84
2024/03/22 07:58:21;;;;;;;36.33;32.63;;;;;;;;;;5063994;28;20938;-83
2024/03/22 08:00:47;;;;;;;33.87;30.67;;;;;;;;;;5062829;28;20475;-84
2024/03/22 08:03:16;;;;;;;36.50;32.93;;;;;;;;;;5063322;28;20480;-84
2024/03/22 08:05:42;;;;;;;34.57;31.00;;;;;;;;;;5061793;28;20498;-82
2024/03/22 08:08:10;;;;;;;32.13;29.37;;;;;;;;;;5059238;28;20470;-81
2024/03/22 08:10:36;;;;;;;34.07;30.97;;;;;;;;;;5058693;28;20473;-81
2024/03/22 08:13:03;;;;;;;34.10;31.00;;;;;;;;;;5058064;28;20459;-82
2024/03/22 08:15:30;;;;;;;34.33;31.10;;;;;;;;;;5057168;28;20472;-81
2024/03/22 08:17:57;;;;;;;33.23;29.80;;;;;;;;;;5057651;28;20488;-80
2024/03/22 08:20:23;;;;;;;35.30;31.90;;;;;;;;;;5055806;28;21054;-81
2024/03/22 08:22:50;;;;;;;33.00;29.80;;;;;;;;;;5044396;28;20448;-80
2024/03/22 08:25:19;;;;;;;34.00;30.80;;;;;;;;;;5040282;28;20450;-81
2024/03/22 08:27:46;;;;;;;34.10;31.00;;;;;;;;;;5039228;28;20959;-80
2024/03/22 08:30:13;;;;;;;30.30;27.60;;;;;;;;;;5041927;28;20476;-80
2024/03/22 08:32:40;;;;;;;33.97;31.13;;;;;;;;;;5059380;28;20442;-81
2024/03/22 08:35:06;;;;;;;30.70;27.90;;;;;;;;;;5055208;28;20533;-82
2024/03/22 08:37:35;;;;;;;32.13;29.17;;;;;;;;;;5040911;28;20453;-80
2024/03/22 08:40:01;;;;;;;31.20;28.20;;;;;;;;;;5041308;28;20489;-81
2024/03/22 08:42:29;;;;;;;31.60;28.63;;;;;;;;;;5056835;28;20484;-82
2024/03/22 08:44:55;;;;;;;32.10;29.30;;;;;;;;;;5050671;28;20860;-83
2024/03/22 08:47:23;;;;;;;34.10;30.73;;;;;;;;;;5048740;28;20493;-81
2024/03/22 08:49:50;;;;;;;31.10;28.20;;;;;;;;;;5051901;28;20477;-81
2024/03/22 08:52:17;;;;;;;32.60;29.37;;;;;;;;;;5041017;28;20430;-80
2024/03/22 08:54:43;;;;;;;32.50;29.90;;;;;;;;;;5042901;28;20476;-79
2024/03/22 08:57:10;;;;;;;33.77;30.73;;;;;;;;;;5058585;28;20448;-82
2024/03/22 08:59:38;;;;;;;32.57;29.90;;;;;;;;;;5055011;28;20482;-82
2024/03/22 09:02:05;;;;;;;33.50;30.60;;;;;;;;;;5051752;28;20500;-80
2024/03/22 09:04:31;;;;;;;33.70;30.43;;;;;;;;;;5046029;28;20503;-82
2024/03/22 09:06:58;;;;;;;35.13;32.10;;;;;;;;;;5053421;28;20446;-88
2024/03/22 09:09:24;;;;;;;29.93;27.13;;;;;;;;;;5060481;28;20546;-87
2024/03/22 09:11:52;;;;;;;34.63;31.67;;;;;;;;;;5060135;28;20455;-87
2024/03/22 09:14:18;;;;;;;33.97;30.77;;;;;;;;;;5059854;28;20955;-88
2024/03/22 09:16:47;;;;;;;33.07;30.37;;;;;;;;;;5057930;28;20497;-80
2024/03/22 09:19:13;;;;;;;33.97;31.00;;;;;;;;;;5056201;28;20468;-79
2024/03/22 09:21:40;;;;;;;28.93;26.50;;;;;;;;;;5056036;28;20467;-79
2024/03/22 09:24:06;;;;;;;36.60;33.20;;;;;;;;;;5056437;28;20456;-79
2024/03/22 09:26:34;;;;;;;50.20;44.93;;;;;;;;;;5055693;28;20464;-80
2024/03/22 09:29:00;;;;;;;40.50;36.30;;;;;;;;;;5056418;28;21239;-80
2024/03/22 09:31:27;;;;;;;31.37;28.80;;;;;;;;;;5056363;28;20455;-81
2024/03/22 09:33:54;;;;;;;32.87;30.07;;;;;;;;;;5056729;28;20849;-79
2024/03/22 09:36:21;;;;;;;36.10;33.00;;;;;;;;;;5055094;28;20795;-79
2024/03/22 09:38:47;;;;;;;35.20;32.10;;;;;;;;;;5055323;28;20487;-80
2024/03/22 09:41:15;;;;;;;36.70;33.67;;;;;;;;;;5055279;28;20538;-81
2024/03/22 09:43:44;;;;;;;35.27;32.23;;;;;;;;;;5056428;28;20449;-79
2024/03/22 09:46:12;;;;;;;34.27;31.17;;;;;;;;;;5055617;28;20460;-87
2024/03/22 09:48:38;;;;;;;31.00;28.40;;;;;;;;;;5056662;28;20536;-79
2024/03/22 09:51:07;;;;;;;30.77;28.30;;;;;;;;;;5056266;28;20529;-79
2024/03/22 09:53:33;;;;;;;30.90;28.40;;;;;;;;;;5055724;28;20453;-82
2024/03/22 09:56:01;;;;;;;33.73;30.47;;;;;;;;;;5055118;28;20544;-79
2024/03/22 09:58:28;;;;;;;30.70;28.20;;;;;;;;;;5057011;28;20559;-80
2024/03/22 10:01:00;;;;;;;29.13;26.93;;;;;;;;;;5055900;28;20479;-80
2024/03/22 10:03:26;;;;;;;29.93;27.70;;;;;;;;;;5035549;28;20476;-80
2024/03/22 10:05:53;;;;;;;30.90;28.50;;;;;;;;;;5035552;28;20449;-80
2024/03/22 10:08:20;;;;;;;29.50;26.97;;;;;;;;;;5035842;28;20559;-80
2024/03/22 10:10:47;;;;;;;31.00;28.50;;;;;;;;;;5035874;28;20509;-79
2024/03/22 10:13:13;;;;;;;31.33;28.80;;;;;;;;;;5035553;28;20530;-82
2024/03/22 10:15:40;;;;;;;32.77;30.17;;;;;;;;;;5035515;28;20445;-81
2024/03/22 10:18:08;;;;;;;31.27;28.77;;;;;;;;;;5035286;28;20466;-79
2024/03/22 10:20:35;;;;;;;31.77;29.10;;;;;;;;;;5035636;28;20539;-81
2024/03/22 10:23:01;;;;;;;32.50;29.50;;;;;;;;;;5043585;28;20478;-81
2024/03/22 10:25:32;;;;;;;35.37;32.30;;;;;;;;;;5055240;28;20461;-83
2024/03/22 10:27:59;;;;;;;33.27;30.23;;;;;;;;;;5054724;28;22509;-79
2024/03/22 10:30:26;;;;;;;29.67;27.03;;;;;;;;;;5055178;28;20534;-81
2024/03/22 10:32:52;;;;;;;30.40;27.93;;;;;;;;;;5055666;28;20456;-82
2024/03/22 10:35:19;;;;;;;35.03;31.87;;;;;;;;;;5055481;28;20883;-81
2024/03/22 10:37:45;;;;;;;35.80;32.73;;;;;;;;;;5054295;28;20454;-82
2024/03/22 10:40:14;;;;;;;34.57;31.37;;;;;;;;;;5054229;28;20439;-77
2024/03/22 10:42:41;;;;;;;33.47;30.77;;;;;;;;;;5043325;28;20459;-87
2024/03/22 10:45:10;;;;;;;33.17;30.17;;;;;;;;;;5034822;28;20493;-79
2024/03/22 10:47:37;;;;;;;34.23;31.13;;;;;;;;;;5034468;28;20532;-81
2024/03/22 10:50:06;;;;;;;32.97;30.20;;;;;;;;;;5043091;28;20546;-79
2024/03/22 10:52:33;;;;;;;34.13;30.90;;;;;;;;;;5055035;28;20834;-80
2024/03/22 10:55:01;;;;;;;31.67;29.10;;;;;;;;;;5055056;28;20443;-81
2024/03/22 10:57:27;;;;;;;31.77;29.10;;;;;;;;;;5055222;28;20445;-81
2024/03/22 10:59:57;;;;;;;33.40;30.67;;;;;;;;;;5044082;28;20472;-80
2024/03/22 11:02:24;;;;;;;34.63;31.50;;;;;;;;;;5056279;28;20861;-87
2024/03/22 11:04:55;;;;;;;28.90;26.50;;;;;;;;;;5055691;28;20452;-84
2024/03/22 11:07:21;;;;;;;33.30;30.50;;;;;;;;;;5054566;28;20534;-86
2024/03/22 11:09:53;;;;;;;33.70;30.83;;;;;;;;;;5050642;28;20463;-83
2024/03/22 11:12:20;;;;;;;32.73;29.83;;;;;;;;;;5056528;28;20427;-85
2024/03/22 11:14:47;;;;;;;33.63;30.90;;;;;;;;;;5056580;28;20500;-86
2024/03/22 11:17:14;;;;;;;30.03;27.53;;;;;;;;;;5055288;28;20490;-88
2024/03/22 11:19:42;;;;;;;32.20;29.40;;;;;;;;;;5055461;28;20477;-87
2024/03/22 11:22:08;;;;;;;30.43;27.93;;;;;;;;;;5055591;28;20501;-87
2024/03/22 11:24:38;;;;;;;32.33;29.40;;;;;;;;;;5055220;28;20447;-88
2024/03/22 11:27:04;;;;;;;32.33;29.40;;;;;;;;;;5050546;28;20488;-78
2024/03/22 11:29:31;;;;;;;31.30;28.63;;;;;;;;;;5050030;28;20476;-78
2024/03/22 11:31:57;;;;;;;31.70;28.70;;;;;;;;;;5050266;28;20437;-78
2024/03/22 11:34:26;;;;;;;33.27;30.57;;;;;;;;;;5049878;28;20441;-79
2024/03/22 11:36:54;;;;;;;33.23;30.30;;;;;;;;;;5049681;28;20452;-77
2024/03/22 11:39:21;;;;;;;32.80;29.90;;;;;;;;;;5050095;28;20500;-78
2024/03/22 11:41:49;;;;;;;29.93;27.50;;;;;;;;;;5049956;28;20450;-78
2024/03/22 11:44:18;;;;;;;34.10;30.90;;;;;;;;;;5050016;28;20534;-78
2024/03/22 11:46:44;;;;;;;34.63;31.33;;;;;;;;;;5044012;28;20616;-79
2024/03/22 11:49:11;;;;;;;34.27;31.03;;;;;;;;;;5029638;28;20880;-79
2024/03/22 11:51:39;;;;;;;32.63;29.67;;;;;;;;;;5030196;28;20445;-79
2024/03/22 11:54:07;;;;;;;33.80;30.73;;;;;;;;;;5030108;28;20453;-79
2024/03/22 11:56:35;;;;;;;33.70;30.30;;;;;;;;;;5029539;28;20544;-79
2024/03/22 11:59:03;;;;;;;32.10;29.23;;;;;;;;;;5029943;28;20479;-77
2024/03/22 12:01:29;;;;;;;32.07;29.47;;;;;;;;;;5030385;28;20463;-78
2024/03/22 12:03:57;;;;;;;31.17;28.60;;;;;;;;;;5030475;28;21004;-76
2024/03/22 12:06:23;;;;;;;31.63;29.03;;;;;;;;;;5033028;28;20460;-79
2024/03/22 12:08:51;;;;;;;34.37;31.27;;;;;;;;;;5034747;28;20481;-80
2024/03/22 12:11:17;;;;;;;35.20;32.07;;;;;;;;;;5035045;28;20515;-80
2024/03/22 12:13:44;;;;;;;34.40;31.50;;;;;;;;;;5038290;28;20598;-81
2024/03/22 12:16:10;;;;;;;34.90;32.00;;;;;;;;;;5054184;28;20460;-80
2024/03/22 12:18:37;;;;;;;35.57;32.47;;;;;;;;;;5041591;28;20477;-80
2024/03/22 12:21:03;;;;;;;34.50;31.70;;;;;;;;;;5034329;28;20707;-80
2024/03/22 12:23:30;;;;;;;32.67;29.97;;;;;;;;;;5047154;28;20496;-80
2024/03/22 12:25:58;;;;;;;33.30;30.50;;;;;;;;;;5054177;28;20471;-80
2024/03/22 12:28:25;;;;;;;38.23;35.03;;;;;;;;;;5053127;28;20567;-79
2024/03/22 12:30:51;;;;;;;38.17;34.53;;;;;;;;;;5050160;28;20471;-78
2024/03/22 12:33:18;;;;;;;40.57;36.30;;;;;;;;;;5050487;28;20503;-78
2024/03/22 12:35:45;;;;;;;38.37;34.93;;;;;;;;;;5052878;28;20460;-79
2024/03/22 12:38:13;;;;;;;38.17;34.37;;;;;;;;;;5053507;28;20464;-78
2024/03/22 12:40:39;;;;;;;39.63;35.83;;;;;;;;;;5053564;28;20483;-79
2024/03/22 12:43:10;;;;;;;38.63;35.10;;;;;;;;;;5053263;28;20774;-78
2024/03/22 12:45:36;;;;;;;40.07;36.50;;;;;;;;;;5049823;28;20441;-78
2024/03/22 12:48:04;;;;;;;39.10;35.40;;;;;;;;;;5039584;28;20612;-78
2024/03/22 12:50:30;;;;;;;41.40;36.97;;;;;;;;;;5033559;28;20482;-78
2024/03/22 12:52:57;;;;;;;37.27;33.87;;;;;;;;;;5033446;28;20458;-78
2024/03/22 12:55:23;;;;;;;39.77;36.10;;;;;;;;;;5033192;28;20467;-79
2024/03/22 12:57:50;;;;;;;35.67;32.40;;;;;;;;;;5051568;28;20423;-78
2024/03/22 13:00:18;;;;;;;37.83;34.50;;;;;;;;;;5053136;28;20504;-77
2024/03/22 13:02:45;;;;;;;37.07;33.70;;;;;;;;;;5053395;28;20982;-78
2024/03/22 13:05:11;;;;;;;40.43;36.60;;;;;;;;;;5053178;28;20466;-79
2024/03/22 13:07:38;;;;;;;36.73;33.23;;;;;;;;;;5052310;28;20488;-78
2024/03/22 13:10:05;;;;;;;38.50;35.10;;;;;;;;;;5053029;28;20460;-78
2024/03/22 13:12:34;;;;;;;40.63;37.23;;;;;;;;;;5053811;28;20446;-78
2024/03/22 13:15:00;;;;;;;38.03;34.30;;;;;;;;;;5053121;28;20885;-78
2024/03/22 13:17:28;;;;;;;38.70;35.47;;;;;;;;;;5052386;28;20845;-78
2024/03/22 13:19:54;;;;;;;37.47;34.17;;;;;;;;;;5052507;28;20443;-78
2024/03/22 13:22:21;;;;;;;38.37;34.90;;;;;;;;;;5052632;28;20761;-78
2024/03/22 13:24:47;;;;;;;42.80;38.70;;;;;;;;;;5052894;28;20425;-79
2024/03/22 13:27:15;;;;;;;43.07;39.00;;;;;;;;;;5052025;28;20457;-78
2024/03/22 13:29:41;;;;;;;39.30;35.73;;;;;;;;;;5051064;28;20518;-78
2024/03/22 13:32:08;;;;;;;41.33;37.47;;;;;;;;;;5053838;28;20461;-83
2024/03/22 13:34:36;;;;;;;43.03;39.03;;;;;;;;;;5058301;28;20434;-87
2024/03/22 13:37:03;;;;;;;40.87;36.77;;;;;;;;;;5055133;28;20435;-86
2024/03/22 13:39:48;;;;;;;37.37;34.10;;;;;;;;;;5051235;28;20530;-88
2024/03/22 13:42:15;;;;;;;31.90;28.80;;;;;;;;;;5053564;28;20457;-84
2024/03/22 13:44:41;;;;;;;40.30;36.70;;;;;;;;;;5057780;28;20448;-90
2024/03/22 13:47:08;;;;;;;43.37;38.77;;;;;;;;;;5051464;28;20418;-89
2024/03/22 13:49:36;;;;;;;43.67;39.23;;;;;;;;;;5036780;28;20440;-89
2024/03/22 13:52:04;;;;;;;43.17;39.03;;;;;;;;;;5038140;28;20946;-86
2024/03/22 13:54:30;;;;;;;40.50;36.80;;;;;;;;;;5036372;28;20868;-78
2024/03/22 13:56:57;;;;;;;41.03;36.93;;;;;;;;;;5031527;28;20567;-78
2024/03/22 13:59:23;;;;;;;42.57;38.67;;;;;;;;;;5031796;28;20943;-77
2024/03/22 14:01:50;;;;;;;46.00;41.37;;;;;;;;;;5031797;28;20519;-79
2024/03/22 14:04:16;;;;;;;45.00;40.50;;;;;;;;;;5032214;28;20815;-79
2024/03/22 14:06:44;;;;;;;50.17;40.57;;;;;;;;;;5031193;28;20952;-78
2024/03/22 14:09:12;;;;;;;52.93;47.43;;;;;;;;;;5031248;28;20467;-78
2024/03/22 14:11:40;;;;;;;48.83;43.67;;;;;;;;;;5050152;28;20467;-78
2024/03/22 14:14:07;;;;;;;47.17;42.27;;;;;;;;;;5051421;28;20446;-77